createdAt,value
2019-01-11T00:00:12.299Z,57.62
2019-01-11T00:05:16.463Z,57.62
2019-01-11T00:10:20.597Z,58.30
2019-01-11T00:15:24.781Z,58.17
2019-01-11T00:20:28.915Z,58.48
2019-01-11T00:25:35.155Z,58.61
2019-01-11T00:30:39.298Z,58.38
2019-01-11T00:35:43.412Z,58.38
2019-01-11T00:40:47.523Z,57.79
2019-01-11T00:45:51.637Z,58.63
2019-01-11T00:50:55.768Z,58.17
2019-01-11T00:55:59.945Z,58.04
2019-01-11T01:01:04.257Z,58.73
2019-01-11T01:06:08.446Z,58.77
2019-01-11T01:11:12.936Z,58.77
2019-01-11T01:16:17.033Z,59.04
2019-01-11T01:21:21.125Z,59.04
2019-01-11T01:26:25.327Z,58.48
2019-01-11T01:31:29.420Z,58.76
2019-01-11T01:36:33.535Z,58.37
2019-01-11T01:41:37.839Z,58.20
2019-01-11T01:46:41.954Z,58.45
2019-01-11T01:51:46.088Z,58.99
2019-01-11T01:56:50.242Z,58.89
2019-01-11T02:01:54.412Z,59.31
2019-01-11T02:06:58.502Z,59.31
2019-01-11T02:12:02.715Z,58.96
2019-01-11T02:17:06.834Z,59.24
2019-01-11T02:27:13.866Z,59.53
2019-01-11T02:32:18.057Z,59.76
2019-01-11T02:37:22.160Z,59.36
2019-01-11T02:42:26.362Z,60.16
2019-01-11T02:47:30.501Z,59.84
2019-01-11T02:52:35.601Z,59.63
2019-01-11T02:57:39.981Z,60.01
2019-01-11T03:02:44.249Z,60.05
2019-01-11T03:07:48.944Z,59.56
2019-01-11T03:12:53.075Z,60.24
2019-01-11T03:17:57.125Z,59.64
2019-01-11T03:23:01.166Z,60.36
2019-01-11T03:28:05.360Z,60.08
2019-01-11T03:33:09.432Z,60.00
2019-01-11T03:38:13.651Z,59.75
2019-01-11T03:43:17.788Z,59.57
2019-01-11T03:48:21.840Z,60.37
2019-01-11T03:53:25.981Z,60.37
2019-01-11T03:58:30.095Z,60.36
2019-01-11T04:03:34.278Z,60.34
2019-01-11T04:08:38.848Z,59.98
2019-01-11T04:13:42.978Z,60.76
2019-01-11T04:18:55.831Z,60.46
2019-01-11T04:23:59.958Z,60.35
2019-01-11T04:29:04.055Z,60.83
2019-01-11T04:34:08.138Z,60.65
2019-01-11T04:39:12.228Z,59.25
2019-01-11T04:44:16.518Z,58.91
2019-01-11T04:49:20.573Z,58.91
2019-01-11T04:54:24.611Z,59.36
2019-01-11T04:59:28.732Z,59.36
2019-01-11T05:04:32.893Z,60.02
2019-01-11T05:09:37.077Z,60.28
2019-01-11T05:14:41.125Z,60.79
2019-01-11T05:19:45.239Z,60.76
2019-01-11T05:24:49.299Z,60.88
2019-01-11T05:29:53.493Z,60.31
2019-01-11T05:34:57.544Z,60.31
2019-01-11T05:40:02.517Z,60.90
2019-01-11T05:45:07.201Z,60.90
2019-01-11T05:50:13.751Z,61.19
2019-01-11T05:55:31.637Z,61.63
2019-01-11T06:00:35.769Z,61.37
2019-01-11T06:05:39.846Z,61.48
2019-01-11T06:10:43.985Z,61.48
2019-01-11T06:15:48.180Z,61.72
2019-01-11T06:20:52.548Z,62.05
2019-01-11T06:25:56.761Z,62.05
2019-01-11T06:31:00.905Z,61.77
2019-01-11T06:36:05.038Z,61.84
2019-01-11T06:41:09.161Z,61.99
2019-01-11T06:46:13.291Z,62.44
2019-01-11T06:51:17.499Z,62.68
2019-01-11T06:56:21.522Z,62.80
2019-01-11T07:01:25.658Z,62.33
2019-01-11T07:06:29.800Z,62.64
2019-01-11T07:11:33.918Z,62.40
2019-01-11T07:16:38.057Z,62.43
2019-01-11T07:21:42.257Z,62.68
2019-01-11T07:26:46.295Z,62.73
2019-01-11T07:31:50.399Z,62.73
2019-01-11T07:36:56.225Z,62.55
2019-01-11T07:42:00.431Z,62.68
2019-01-11T07:47:04.625Z,62.68
2019-01-11T07:52:08.757Z,62.70
2019-01-11T07:57:14.115Z,62.77
2019-01-11T08:02:18.941Z,62.64
2019-01-11T08:07:23.041Z,63.28
2019-01-11T08:12:27.147Z,62.85
2019-01-11T08:17:31.253Z,62.85
2019-01-11T08:22:40.891Z,63.06
2019-01-11T08:27:45.225Z,63.09
2019-01-11T08:32:50.469Z,49.77
2019-01-11T08:37:54.592Z,50.56
2019-01-11T08:42:58.671Z,51.18
2019-01-11T08:48:02.790Z,56.51
2019-01-11T08:53:07.071Z,65.75
2019-01-11T08:58:11.230Z,69.31
2019-01-11T09:03:15.421Z,66.07
2019-01-11T09:08:19.962Z,63.89
2019-01-11T09:13:24.176Z,63.89
2019-01-11T09:18:42.454Z,62.50
2019-01-11T09:23:46.818Z,62.20
2019-01-11T09:28:51.177Z,62.22
2019-01-11T09:33:55.677Z,62.22
2019-01-11T09:39:00.703Z,62.09
2019-01-11T09:44:04.991Z,61.96
2019-01-11T09:49:09.073Z,61.96
2019-01-11T09:54:13.835Z,61.96
2019-01-11T09:59:18.401Z,62.00
2019-01-11T10:04:27.204Z,61.99
2019-01-11T10:09:31.236Z,61.68
2019-01-11T10:14:35.307Z,61.68
2019-01-11T10:19:39.380Z,58.52
2019-01-11T10:24:43.438Z,58.04
2019-01-11T10:29:47.586Z,57.60
2019-01-11T10:34:51.691Z,57.82
2019-01-11T10:39:55.853Z,57.57
2019-01-11T10:45:00.803Z,58.02
2019-01-11T10:50:06.671Z,58.02
2019-01-11T10:55:11.929Z,58.20
2019-01-11T11:00:21.899Z,58.73
2019-01-11T11:05:26.200Z,58.59
2019-01-11T11:10:30.299Z,59.37
2019-01-11T11:15:34.399Z,59.55
2019-01-11T11:20:38.565Z,59.97
2019-01-11T11:25:42.678Z,60.01
2019-01-11T11:30:50.914Z,60.01
2019-01-11T11:35:52.720Z,59.79
2019-01-11T11:40:56.830Z,59.79
2019-01-11T11:46:00.875Z,60.14
2019-01-11T11:51:08.122Z,60.64
2019-01-11T11:56:12.233Z,60.74
2019-01-11T12:01:16.618Z,61.24
2019-01-11T12:06:20.750Z,61.30
2019-01-11T12:11:25.178Z,61.93
2019-01-11T12:16:29.433Z,62.14
2019-01-11T12:21:34.300Z,62.16
2019-01-11T12:26:38.843Z,61.79
2019-01-11T12:31:43.055Z,61.77
2019-01-11T12:36:47.117Z,61.20
2019-01-11T12:41:51.343Z,61.20
2019-01-11T12:46:55.622Z,60.52
2019-01-11T12:51:59.668Z,60.01
2019-01-11T12:57:03.834Z,60.54
2019-01-11T13:02:08.270Z,60.61
2019-01-11T13:07:12.475Z,60.61
2019-01-11T13:12:16.658Z,60.68
2019-01-11T13:17:20.778Z,61.10
2019-01-11T13:22:25.069Z,61.34
2019-01-11T13:27:29.160Z,61.54
2019-01-11T13:32:33.360Z,61.52
2019-01-11T13:37:37.571Z,61.68
2019-01-11T13:42:41.753Z,61.68
2019-01-11T13:47:46.089Z,61.54
2019-01-11T13:52:50.217Z,61.53
2019-01-11T13:57:54.402Z,61.31
2019-01-11T14:02:58.640Z,61.68
2019-01-11T14:08:02.775Z,61.68
2019-01-11T14:13:07.081Z,61.13
2019-01-11T14:18:15.092Z,60.90
2019-01-11T14:23:19.460Z,61.53
2019-01-11T14:28:23.537Z,61.53
2019-01-11T14:33:27.717Z,61.86
2019-01-11T14:38:31.784Z,61.74
2019-01-11T14:43:35.811Z,61.66
2019-01-11T14:48:39.918Z,61.47
2019-01-11T14:53:43.977Z,61.83
2019-01-11T14:58:48.112Z,61.34
2019-01-11T15:03:52.331Z,61.12
2019-01-11T15:08:56.380Z,61.52
2019-01-11T15:14:00.405Z,61.62
2019-01-11T15:19:04.522Z,61.03
2019-01-11T15:24:08.690Z,61.22
2019-01-11T15:29:12.832Z,61.54
2019-01-11T15:34:16.943Z,61.31
2019-01-11T15:39:21.096Z,61.31
2019-01-11T15:44:25.130Z,61.60
2019-01-11T15:49:29.158Z,61.60
2019-01-11T15:54:33.262Z,61.40
2019-01-11T16:00:00.393Z,61.66
2019-01-11T16:05:04.727Z,61.71
2019-01-11T16:10:16.545Z,61.95
2019-01-11T16:15:34.477Z,61.61
2019-01-11T16:20:38.529Z,61.61
2019-01-11T16:25:42.620Z,61.89
2019-01-11T16:30:46.762Z,61.89
2019-01-11T16:35:50.863Z,61.49
2019-01-11T16:40:54.987Z,61.49
2019-01-11T16:45:59.092Z,61.34
2019-01-11T16:51:03.202Z,61.21
2019-01-11T16:56:07.379Z,61.23
2019-01-11T17:01:11.607Z,61.38
2019-01-11T17:06:15.763Z,60.83
2019-01-11T17:11:19.965Z,61.14
2019-01-11T17:16:24.063Z,61.66
2019-01-11T17:21:28.269Z,61.44
2019-01-11T17:26:32.441Z,61.87
2019-01-11T17:31:36.550Z,65.69
2019-01-11T17:36:40.583Z,64.39
2019-01-11T17:41:44.780Z,64.83
2019-01-11T17:46:48.806Z,64.74
2019-01-11T17:51:52.931Z,64.74
2019-01-11T17:56:56.978Z,64.44
2019-01-11T18:02:01.030Z,64.01
2019-01-11T18:07:05.283Z,64.16
2019-01-11T18:12:09.499Z,63.90
2019-01-11T18:17:13.732Z,63.49
2019-01-11T18:22:17.836Z,63.34
2019-01-11T18:27:21.977Z,63.59
2019-01-11T18:32:26.097Z,63.20
2019-01-11T18:37:30.143Z,63.20
2019-01-11T18:42:35.397Z,60.79
2019-01-11T18:47:39.531Z,62.53
2019-01-11T18:52:43.710Z,61.34
2019-01-11T18:57:48.004Z,61.00
2019-01-11T19:02:52.136Z,61.33
2019-01-11T19:07:56.313Z,61.50
2019-01-11T19:13:00.434Z,61.06
2019-01-11T19:18:04.714Z,60.51
2019-01-11T19:23:08.838Z,59.64
2019-01-11T19:28:13.018Z,60.23
2019-01-11T19:33:17.111Z,60.28
2019-01-11T19:38:22.359Z,60.28
2019-01-11T19:43:26.625Z,60.38
2019-01-11T19:48:30.758Z,60.62
2019-01-11T19:53:34.999Z,60.40
2019-01-11T19:58:39.108Z,60.46
2019-01-11T20:03:43.317Z,60.62
2019-01-11T20:08:47.477Z,60.34
2019-01-11T20:13:51.686Z,60.70
2019-01-11T20:18:55.936Z,60.70
2019-01-11T20:23:59.989Z,60.83
2019-01-11T20:29:04.202Z,60.26
2019-01-11T20:34:08.405Z,60.26
2019-01-11T20:39:12.524Z,60.26
2019-01-11T20:44:16.585Z,60.20
2019-01-11T20:49:20.655Z,60.01
2019-01-11T20:54:24.674Z,60.01
2019-01-11T20:59:28.701Z,60.35
2019-01-11T21:04:32.864Z,60.12
2019-01-11T21:09:36.891Z,60.59
2019-01-11T21:14:41.010Z,60.70
2019-01-11T21:19:45.108Z,60.86
2019-01-11T21:24:49.622Z,60.37
2019-01-11T21:29:53.738Z,61.20
2019-01-11T21:34:57.782Z,61.20
2019-01-11T21:40:01.812Z,60.74
2019-01-11T21:45:07.291Z,60.74
2019-01-11T21:50:15.365Z,60.56
2019-01-11T21:55:19.672Z,60.52
2019-01-11T22:00:26.620Z,61.11
2019-01-11T22:05:30.817Z,60.95
2019-01-11T22:10:34.934Z,60.70
2019-01-11T22:15:39.160Z,61.44
2019-01-11T22:20:43.292Z,61.04
2019-01-11T22:25:47.393Z,61.35
2019-01-11T22:30:51.604Z,61.35
2019-01-11T22:35:55.626Z,61.61
2019-01-11T22:40:59.692Z,61.71
2019-01-11T22:46:03.827Z,61.34
2019-01-11T22:51:07.849Z,61.41
2019-01-11T22:56:11.885Z,61.41
2019-01-11T23:01:30.839Z,61.05
2019-01-11T23:07:23.994Z,61.08
2019-01-11T23:12:41.376Z,60.98
2019-01-11T23:17:49.343Z,61.36
2019-01-11T23:22:53.578Z,61.28
2019-01-11T23:27:57.677Z,61.13
2019-01-11T23:33:01.754Z,61.91
2019-01-11T23:38:05.894Z,61.52
2019-01-11T23:43:09.990Z,62.28
2019-01-11T23:48:14.024Z,61.82
2019-01-11T23:53:18.155Z,62.29
2019-01-11T23:58:22.275Z,61.70
